Time;durP1;ratioP1;P1;durP2;ratioP2;P2;SDS_P1;SDS_P2;PMS_P1;PMS_P2;Temp;Humidity;BMP_temperature;BMP_pressure;BME280_temperature;BME280_humidity;BME280_pressure;Samples;Min_cycle;Max_cycle;Signal;HPM_P1;HPM_P2
2022/08/04 00:01:11;;;;;;;7.07;3.67;;;;;;;22.60;66.08;101149.91;5046028;28;20128;-76
2022/08/04 00:03:46;;;;;;;6.50;3.50;;;;;;;22.56;66.01;101143.97;5042408;28;20100;-76
2022/08/04 00:06:28;;;;;;;9.18;3.70;;;;;;;22.49;66.24;101141.88;5046465;28;20034;-76
2022/08/04 00:09:03;;;;;;;7.85;3.67;;;;;;;22.46;65.54;101139.47;5044479;28;20124;-76
2022/08/04 00:11:30;;;;;;;8.10;3.72;;;;;;;22.40;67.07;101135.38;5046036;28;20025;-76
2022/08/04 00:14:11;;;;;;;6.90;3.67;;;;;;;22.38;66.68;101132.84;5043819;28;20041;-75
2022/08/04 00:16:39;;;;;;;6.93;3.97;;;;;;;22.35;67.62;101129.59;5045835;28;20025;-76
2022/08/04 00:19:31;;;;;;;7.95;3.90;;;;;;;22.32;66.26;101135.94;5045115;28;20029;-76
2022/08/04 00:22:02;;;;;;;6.78;3.55;;;;;;;22.26;67.33;101133.75;5046825;28;20060;-76
2022/08/04 00:24:30;;;;;;;5.35;3.40;;;;;;;22.22;67.49;101133.09;5044195;28;20416;-76
2022/08/04 00:26:56;;;;;;;7.28;4.10;;;;;;;22.22;66.59;101133.09;5047895;28;20055;-76
2022/08/04 00:29:22;;;;;;;6.35;3.70;;;;;;;22.19;66.50;101133.34;5041804;28;20491;-77
2022/08/04 00:31:48;;;;;;;8.85;3.60;;;;;;;22.14;66.99;101130.16;5046675;28;20029;-76
2022/08/04 00:34:15;;;;;;;9.00;3.63;;;;;;;22.10;67.04;101126.88;5044172;28;20024;-77
2022/08/04 00:36:42;;;;;;;7.90;3.80;;;;;;;22.07;67.06;101123.56;5043583;28;20116;-78
2022/08/04 00:39:12;;;;;;;7.20;3.92;;;;;;;22.02;66.91;101121.25;5044152;28;20032;-77
2022/08/04 00:41:43;;;;;;;6.03;3.47;;;;;;;22.00;66.73;101128.47;5044250;28;20511;-76
2022/08/04 00:44:20;;;;;;;8.00;4.13;;;;;;;21.93;67.31;101122.75;5043540;28;20415;-77
2022/08/04 00:46:54;;;;;;;8.82;4.03;;;;;;;21.89;67.29;101113.31;5045568;28;20058;-76
2022/08/04 00:49:38;;;;;;;5.60;4.07;;;;;;;21.85;66.67;101117.16;5043566;28;20132;-77
2022/08/04 00:52:17;;;;;;;7.15;4.00;;;;;;;21.81;67.31;101110.34;5044071;28;20017;-76
2022/08/04 00:55:15;;;;;;;8.57;3.55;;;;;;;21.79;66.89;101109.63;5042572;28;20029;-76
2022/08/04 00:57:46;;;;;;;7.07;3.55;;;;;;;21.72;67.56;101116.28;5044255;28;20371;-76
2022/08/04 01:00:14;;;;;;;6.03;3.70;;;;;;;21.65;69.24;101114.06;5043345;28;20087;-76
2022/08/04 01:02:53;;;;;;;6.28;3.78;;;;;;;21.65;68.10;101111.41;5042651;28;20112;-76
2022/08/04 01:05:55;;;;;;;6.32;3.53;;;;;;;21.63;66.92;101105.38;5045347;28;20199;-77
2022/08/04 01:08:48;;;;;;;6.05;3.35;;;;;;;21.59;67.66;101106.50;5044523;28;20025;-76
2022/08/04 01:11:41;;;;;;;6.82;3.38;;;;;;;21.55;67.63;101104.16;5042569;28;20039;-76
2022/08/04 01:14:44;;;;;;;7.43;3.38;;;;;;;21.52;67.88;101103.44;5048733;28;20036;-76
2022/08/04 01:17:18;;;;;;;8.38;3.67;;;;;;;21.51;67.51;101100.91;4997735;28;20047;-76
2022/08/04 01:20:04;;;;;;;8.70;3.60;;;;;;;21.45;67.24;101091.53;5044300;28;20498;-76
2022/08/04 01:22:32;;;;;;;9.85;3.72;;;;;;;21.40;68.90;101095.47;5043854;28;20032;-76
2022/08/04 01:25:12;;;;;;;6.70;3.22;;;;;;;21.38;68.47;101093.75;5045364;28;20533;-76
2022/08/04 01:27:52;;;;;;;9.23;3.30;;;;;;;21.37;68.11;101088.59;5042022;28;20116;-77
2022/08/04 01:30:18;;;;;;;5.53;3.17;;;;;;;21.34;68.52;101083.50;5040976;28;20109;-77
2022/08/04 01:32:50;;;;;;;4.95;3.13;;;;;;;21.29;68.22;101085.59;5042426;28;20028;-77
2022/08/04 01:35:38;;;;;;;4.95;3.17;;;;;;;21.31;67.09;101084.56;5044667;28;20070;-76
2022/08/04 01:38:16;;;;;;;7.03;3.60;;;;;;;21.27;67.85;101077.78;5044409;28;20115;-76
2022/08/04 01:40:44;;;;;;;7.07;3.30;;;;;;;21.23;68.65;101076.28;5043644;28;20036;-76
2022/08/04 01:43:12;;;;;;;5.40;3.17;;;;;;;21.20;68.90;101077.34;5044610;28;20048;-76
2022/08/04 01:45:38;;;;;;;5.82;3.22;;;;;;;21.20;68.06;101081.78;5048969;28;20040;-76
2022/08/04 01:48:06;;;;;;;6.88;3.15;;;;;;;21.16;67.96;101075.00;5043331;28;20464;-73
2022/08/04 01:50:35;;;;;;;8.20;3.53;;;;;;;21.15;67.16;101076.78;5041656;28;20043;-74
2022/08/04 01:53:01;;;;;;;7.15;3.03;;;;;;;21.10;67.93;101076.25;5043815;28;20025;-73
2022/08/04 01:55:28;;;;;;;5.75;3.05;;;;;;;21.08;68.92;101078.16;5043995;28;20021;-76
2022/08/04 01:57:57;;;;;;;7.70;3.00;;;;;;;21.07;69.00;101072.00;5042399;28;20188;-74
2022/08/04 02:00:26;;;;;;;7.68;3.10;;;;;;;21.05;68.60;101076.56;5044022;28;20399;-74
2022/08/04 02:02:52;;;;;;;7.75;2.90;;;;;;;21.05;68.35;101073.09;5042655;28;20090;-73
2022/08/04 02:05:20;;;;;;;5.50;2.80;;;;;;;21.07;67.16;101071.19;5042642;28;20384;-73
2022/08/04 02:08:12;;;;;;;6.35;2.88;;;;;;;21.08;67.24;101070.22;5043744;28;20036;-73
2022/08/04 02:10:40;;;;;;;7.45;3.08;;;;;;;21.05;66.83;101068.63;5045046;28;20039;-73
2022/08/04 02:13:40;;;;;;;6.43;2.70;;;;;;;21.07;66.67;101057.97;5044394;28;20079;-73
2022/08/04 02:16:21;;;;;;;6.43;2.70;;;;;;;21.07;66.84;101050.03;5047265;28;20029;-73
2022/08/04 02:18:56;;;;;;;;;;;;;;;21.17;65.77;101058.19;5047381;28;20021;-73
2022/08/04 02:21:25;;;;;;;5.95;2.22;;;;;;;21.13;66.94;101054.03;5047586;28;19913;-74
2022/08/04 02:23:55;;;;;;;4.55;2.30;;;;;;;21.12;68.03;101050.53;5047959;28;21793;-73
2022/08/04 02:26:21;;;;;;;4.63;2.30;;;;;;;21.13;67.59;101051.41;5047708;28;20116;-73
2022/08/04 02:28:57;;;;;;;4.05;2.40;;;;;;;21.11;66.79;101050.66;5047093;28;20163;-73
2022/08/04 02:31:47;;;;;;;6.55;2.90;;;;;;;21.12;66.60;101052.34;5046999;28;20017;-73
2022/08/04 02:34:22;;;;;;;4.45;2.40;;;;;;;21.10;67.82;101039.22;5040807;28;20091;-75
2022/08/04 02:36:51;;;;;;;4.53;2.53;;;;;;;21.10;66.34;101043.66;5048717;28;20025;-76
2022/08/04 02:39:19;;;;;;;5.13;2.50;;;;;;;21.08;66.19;101047.25;5046966;28;20029;-75
2022/08/04 02:41:46;;;;;;;6.28;2.67;;;;;;;21.05;66.71;101038.69;5045205;28;20028;-75
2022/08/04 02:44:12;;;;;;;5.78;2.70;;;;;;;21.03;66.97;101037.94;5047389;28;20127;-76
2022/08/04 02:46:40;;;;;;;4.57;2.58;;;;;;;21.02;68.70;101033.59;5044754;28;20041;-73
2022/08/04 02:49:08;;;;;;;6.20;2.63;;;;;;;21.01;67.32;101035.38;5045899;28;20044;-73
2022/08/04 02:51:42;;;;;;;6.50;2.50;;;;;;;20.98;67.40;101032.09;5044455;28;20493;-73
2022/08/04 02:54:08;;;;;;;9.52;2.72;;;;;;;20.95;66.49;101035.81;5047094;28;20029;-73
2022/08/04 02:56:35;;;;;;;6.75;2.58;;;;;;;20.92;67.75;101036.84;5045972;28;20489;-73
2022/08/04 02:59:02;;;;;;;5.82;2.60;;;;;;;20.90;68.01;101036.13;5041325;28;20042;-73
2022/08/04 03:01:28;;;;;;;5.70;2.80;;;;;;;20.92;67.30;101028.06;5044445;28;20033;-75
2022/08/04 03:04:17;;;;;;;4.60;2.67;;;;;;;20.89;66.93;101028.28;5044737;28;20045;-73
2022/08/04 03:07:14;;;;;;;8.18;3.00;;;;;;;20.88;66.48;101029.22;5046851;28;20048;-73
2022/08/04 03:10:08;;;;;;;6.75;2.72;;;;;;;20.82;66.51;101025.19;5045382;28;20376;-73
2022/08/04 03:13:10;;;;;;;7.05;2.70;;;;;;;20.80;66.44;101027.09;5050648;28;20475;-73
2022/08/04 03:15:50;;;;;;;7.65;2.85;;;;;;;20.75;66.94;101016.81;5044858;28;20024;-73
2022/08/04 03:18:36;;;;;;;8.02;2.85;;;;;;;20.74;66.63;101022.19;5041922;28;20029;-73
2022/08/04 03:21:43;;;;;;;9.20;2.53;;;;;;;20.72;66.21;101018.81;5044243;28;20475;-73
2022/08/04 03:24:46;;;;;;;7.75;2.70;;;;;;;20.69;66.26;101016.34;5046365;28;20036;-73
2022/08/04 03:27:11;;;;;;;9.50;2.97;;;;;;;20.65;67.14;101012.22;5045104;28;20037;-73
2022/08/04 03:29:55;;;;;;;7.70;3.10;;;;;;;20.61;67.22;101012.41;5043900;28;20093;-75
2022/08/04 03:32:33;;;;;;;7.70;3.03;;;;;;;20.57;67.61;101010.06;5045185;28;20035;-76
2022/08/04 03:35:38;;;;;;;6.63;2.90;;;;;;;20.57;66.87;101010.94;5043926;28;20025;-73
2022/08/04 03:38:31;;;;;;;5.05;2.70;;;;;;;20.55;66.72;101006.69;5040835;28;20086;-75
2022/08/04 03:40:59;;;;;;;6.30;2.75;;;;;;;20.50;68.54;100999.06;5042473;28;20028;-73
2022/08/04 03:43:45;;;;;;;6.82;2.75;;;;;;;20.49;67.74;101001.81;5044233;28;20052;-73
2022/08/04 03:46:29;;;;;;;7.40;2.92;;;;;;;20.45;69.18;101001.16;5043440;28;20036;-75
2022/08/04 03:49:39;;;;;;;6.85;2.75;;;;;;;20.45;67.63;101002.00;5044562;28;20028;-74
2022/08/04 03:55:09;;;;;;;7.82;3.33;;;;;;;20.49;68.75;100996.53;5045620;28;20051;-73
2022/08/04 03:58:12;;;;;;;8.57;3.03;;;;;;;20.53;67.25;101004.16;5044382;28;20029;-73
2022/08/04 04:01:02;;;;;;;8.95;3.10;;;;;;;20.53;67.23;101019.13;5042313;28;20142;-73
2022/08/04 04:04:00;;;;;;;8.80;3.10;;;;;;;20.52;66.39;101009.50;5043933;28;20056;-73
2022/08/04 04:06:48;;;;;;;8.38;3.17;;;;;;;20.50;66.49;101003.47;5028819;28;20068;-76
2022/08/04 04:09:55;;;;;;;9.77;2.95;;;;;;;20.51;66.87;100997.25;5043735;28;20029;-75
2022/08/04 04:12:37;;;;;;;8.20;2.95;;;;;;;20.47;66.53;100999.25;5044783;28;20044;-75
2022/08/04 04:15:47;;;;;;;8.73;3.22;;;;;;;20.46;67.43;101010.75;5043149;28;20025;-73
2022/08/04 04:18:38;;;;;;;8.90;3.28;;;;;;;20.42;67.41;101023.34;5020632;28;20508;-73
2022/08/04 04:21:34;;;;;;;11.27;3.08;;;;;;;20.41;67.42;101040.13;5045850;28;20057;-75
2022/08/04 04:24:23;;;;;;;9.90;3.03;;;;;;;20.39;67.42;101044.66;5040429;28;20040;-75
2022/08/04 04:27:13;;;;;;;8.32;3.10;;;;;;;20.44;67.12;101037.31;5040797;28;20131;-72
2022/08/04 04:29:47;;;;;;;10.70;3.33;;;;;;;20.49;67.74;101034.34;5039802;28;20141;-75
2022/08/04 04:32:50;;;;;;;8.43;3.22;;;;;;;20.53;67.58;101038.50;5036573;28;20021;-75
2022/08/04 04:35:31;;;;;;;10.98;3.33;;;;;;;20.55;67.59;101047.19;5060214;28;20446;-75
2022/08/04 04:38:29;;;;;;;9.15;2.90;;;;;;;20.62;66.42;101050.28;5046095;28;20084;-75
2022/08/04 04:41:26;;;;;;;11.10;3.13;;;;;;;20.67;66.70;101058.72;5038703;28;20025;-75
2022/08/04 04:44:16;;;;;;;9.55;3.30;;;;;;;20.76;66.11;101049.38;5043764;28;20052;-75
2022/08/04 04:46:52;;;;;;;9.07;3.20;;;;;;;20.80;66.65;101058.81;5042175;28;20123;-75
2022/08/04 04:49:39;;;;;;;9.32;3.17;;;;;;;20.86;66.28;101057.56;5038127;28;20547;-76
2022/08/04 04:52:27;;;;;;;7.18;2.97;;;;;;;20.93;65.64;101048.28;5044331;28;20025;-75
2022/08/04 04:55:03;;;;;;;7.22;2.65;;;;;;;21.00;66.63;101052.22;5043975;28;20499;-73
2022/08/04 04:57:33;;;;;;;9.18;2.90;;;;;;;21.05;66.95;101058.03;5043261;28;20108;-73
2022/08/04 05:00:03;;;;;;;10.35;3.10;;;;;;;21.13;66.35;101059.34;5044990;28;20048;-73
2022/08/04 05:02:58;;;;;;;8.43;2.72;;;;;;;21.20;64.95;101068.53;5040450;28;20029;-75
2022/08/04 05:05:36;;;;;;;10.90;3.00;;;;;;;21.28;65.82;101063.59;5043811;28;20036;-73
2022/08/04 05:08:07;;;;;;;6.28;2.75;;;;;;;21.35;66.24;101061.38;5044297;28;20060;-73
2022/08/04 05:10:50;;;;;;;;;;;;;;;21.43;65.30;101072.31;5047716;28;20025;-73
2022/08/04 05:13:25;;;;;;;7.93;2.25;;;;;;;21.43;67.65;101058.22;5047487;28;20426;-73
2022/08/04 05:15:55;;;;;;;6.22;2.25;;;;;;;21.47;65.01;101073.75;5045452;28;20028;-73
2022/08/04 05:18:24;;;;;;;9.18;2.80;;;;;;;21.51;67.25;101069.13;5042351;28;20056;-73
2022/08/04 05:20:54;;;;;;;7.95;2.80;;;;;;;21.56;68.64;101077.59;5042754;28;20421;-75
2022/08/04 05:23:24;;;;;;;8.55;2.70;;;;;;;21.57;66.90;101073.16;5042307;28;20025;-73
2022/08/04 05:25:56;;;;;;;13.27;3.47;;;;;;;21.58;67.26;101075.69;5047978;28;20017;-74
2022/08/04 05:28:31;;;;;;;7.57;2.92;;;;;;;21.60;66.46;101084.41;5043771;28;20244;-75
2022/08/04 05:31:02;;;;;;;5.65;2.67;;;;;;;21.65;67.72;101076.13;5044201;28;20122;-73
2022/08/04 05:33:42;;;;;;;6.80;3.10;;;;;;;21.68;67.02;101066.19;5039959;28;20029;-75
2022/08/04 05:36:13;;;;;;;7.57;2.80;;;;;;;21.71;68.03;101062.47;5039111;28;20032;-75
2022/08/04 05:38:41;;;;;;;6.70;2.78;;;;;;;21.75;68.40;101071.91;5045696;28;20040;-74
2022/08/04 05:41:08;;;;;;;8.00;2.90;;;;;;;21.77;68.53;101069.16;5038290;28;20062;-75
2022/08/04 05:43:35;;;;;;;7.95;3.25;;;;;;;21.79;68.69;101073.38;5046509;28;20057;-75
2022/08/04 05:46:01;;;;;;;10.38;3.47;;;;;;;21.83;67.16;101079.31;5050195;28;20472;-75
2022/08/04 05:48:27;;;;;;;7.75;3.30;;;;;;;21.87;68.46;101074.66;5053570;28;20058;-75
2022/08/04 05:50:52;;;;;;;7.47;3.10;;;;;;;21.91;67.61;101070.84;5054395;28;20159;-73
2022/08/04 05:53:19;;;;;;;12.45;3.63;;;;;;;21.96;68.20;101064.25;5052219;28;20024;-76
2022/08/04 05:55:46;;;;;;;8.13;3.72;;;;;;;22.01;67.90;101065.75;5054534;28;20025;-76
2022/08/04 05:58:15;;;;;;;8.38;3.83;;;;;;;22.05;67.56;101062.75;5050004;28;20463;-73
2022/08/04 06:00:41;;;;;;;11.00;4.90;;;;;;;22.09;67.15;101063.38;5049978;28;20480;-73
2022/08/04 06:03:09;;;;;;;9.90;4.80;;;;;;;22.11;67.30;101057.03;5051895;28;20104;-75
2022/08/04 06:05:35;;;;;;;8.25;4.45;;;;;;;22.16;68.38;101064.66;5051312;28;20031;-75
2022/08/04 06:08:01;;;;;;;8.90;4.72;;;;;;;22.22;68.93;101058.88;5056864;28;20032;-74
2022/08/04 06:10:27;;;;;;;8.90;4.72;;;;;;;22.27;68.18;101046.16;5052745;28;20031;-75
2022/08/04 06:12:57;;;;;;;7.50;4.70;;;;;;;22.33;68.13;101049.34;5053626;28;20060;-76
2022/08/04 06:15:25;;;;;;;9.40;4.63;;;;;;;22.38;68.45;101052.47;5050648;28;20024;-75
2022/08/04 06:17:55;;;;;;;8.05;4.43;;;;;;;22.41;67.56;101045.16;5052375;28;20035;-75
2022/08/04 06:20:25;;;;;;;8.40;4.70;;;;;;;22.45;67.34;101045.81;5051589;28;20128;-75
2022/08/04 06:22:57;;;;;;;9.23;4.70;;;;;;;22.49;67.56;101055.25;5052864;28;20115;-73
2022/08/04 06:25:26;;;;;;;10.88;4.95;;;;;;;22.53;67.45;101055.84;5054081;28;20473;-73
2022/08/04 06:27:53;;;;;;;9.57;4.93;;;;;;;22.56;67.13;101061.78;5052286;28;20036;-73
2022/08/04 06:30:24;;;;;;;8.43;4.85;;;;;;;22.63;67.11;101056.03;5052940;28;20029;-75
2022/08/04 06:32:59;;;;;;;9.57;5.40;;;;;;;22.67;66.38;101058.34;5053060;28;20032;-73
2022/08/04 06:35:27;;;;;;;10.32;5.28;;;;;;;22.73;68.28;101049.06;5051678;28;20044;-75
2022/08/04 06:37:55;;;;;;;13.05;4.80;;;;;;;22.83;66.29;101055.41;5052751;28;20021;-73
2022/08/04 06:40:22;;;;;;;13.68;5.45;;;;;;;22.93;65.27;101046.75;5052833;28;20079;-75
2022/08/04 06:42:49;;;;;;;12.13;4.90;;;;;;;23.06;66.28;101050.16;5052093;28;20104;-72
2022/08/04 06:45:15;;;;;;;11.38;5.55;;;;;;;23.19;65.23;101058.03;5051442;28;20025;-72
2022/08/04 06:47:43;;;;;;;9.02;5.93;;;;;;;23.30;64.72;101059.91;5050059;28;20029;-73
2022/08/04 06:50:10;;;;;;;8.63;6.15;;;;;;;23.41;64.74;101059.09;5051274;28;20107;-73
2022/08/04 06:52:36;;;;;;;10.70;6.05;;;;;;;23.52;65.62;101052.97;5049387;28;20040;-73
2022/08/04 06:55:02;;;;;;;11.40;5.57;;;;;;;23.63;63.10;101060.94;5048263;28;20024;-73
2022/08/04 06:57:29;;;;;;;9.27;5.53;;;;;;;23.74;64.89;101063.59;5046873;28;20025;-73
2022/08/04 07:00:00;;;;;;;8.90;5.03;;;;;;;23.85;62.11;101070.72;5050939;28;20037;-73
2022/08/04 07:02:28;;;;;;;9.82;4.75;;;;;;;23.95;60.09;101066.38;5048612;28;20033;-73
2022/08/04 07:04:54;;;;;;;9.70;4.78;;;;;;;24.05;59.33;101070.97;5047596;28;20048;-73
2022/08/04 07:07:20;;;;;;;9.18;4.60;;;;;;;24.13;60.95;101067.72;5047805;28;20079;-73
2022/08/04 07:09:45;;;;;;;10.05;4.47;;;;;;;24.21;59.92;101071.44;5047009;28;20029;-73
2022/08/04 07:12:12;;;;;;;10.60;5.10;;;;;;;24.27;62.15;101062.13;5046116;28;20017;-73
2022/08/04 07:14:39;;;;;;;8.05;5.13;;;;;;;24.32;62.62;101067.94;5048648;28;20025;-73
2022/08/04 07:17:06;;;;;;;10.48;5.10;;;;;;;24.34;62.34;101066.00;5044765;28;20029;-72
2022/08/04 07:19:33;;;;;;;9.77;4.45;;;;;;;24.35;59.74;101073.00;5044393;28;20037;-73
2022/08/04 07:22:03;;;;;;;8.60;4.10;;;;;;;24.35;60.47;101073.00;5047935;28;20025;-73
2022/08/04 07:24:33;;;;;;;12.07;3.60;;;;;;;24.38;59.93;101072.75;5057992;28;20032;-73
2022/08/04 07:26:59;;;;;;;7.35;3.55;;;;;;;24.37;58.43;101073.72;5047781;28;20021;-74
2022/08/04 07:29:25;;;;;;;8.25;3.25;;;;;;;24.38;59.07;101066.56;5047642;28;20441;-73
2022/08/04 07:31:52;;;;;;;14.02;3.75;;;;;;;24.38;59.05;101064.78;5049956;28;20029;-74
2022/08/04 07:34:19;;;;;;;9.90;3.95;;;;;;;24.40;58.49;101065.50;5051346;28;20059;-74
2022/08/04 07:36:45;;;;;;;10.90;3.60;;;;;;;24.44;59.19;101070.56;5055069;28;20021;-73
2022/08/04 07:39:10;;;;;;;9.85;3.58;;;;;;;24.44;58.26;101071.41;5049287;28;20152;-73
2022/08/04 07:41:36;;;;;;;9.75;4.30;;;;;;;24.44;58.69;101084.72;5050808;28;20068;-73
2022/08/04 07:44:02;;;;;;;9.65;3.88;;;;;;;24.45;58.79;101081.09;5047265;28;20047;-73
2022/08/04 07:46:28;;;;;;;11.65;3.92;;;;;;;24.46;59.52;101079.25;5051640;28;20102;-74
2022/08/04 07:48:54;;;;;;;8.07;3.60;;;;;;;24.45;59.27;101086.41;5048370;28;20029;-74
2022/08/04 07:51:19;;;;;;;7.43;3.35;;;;;;;24.45;59.37;101078.41;5048890;28;20523;-74
2022/08/04 07:53:46;;;;;;;7.45;3.45;;;;;;;24.45;60.02;101083.75;5045637;28;20029;-73
2022/08/04 07:56:14;;;;;;;8.95;3.90;;;;;;;24.47;58.28;101083.59;5046984;28;20017;-73
2022/08/04 07:58:39;;;;;;;12.25;3.80;;;;;;;24.51;59.89;101083.22;5045496;28;20025;-73
2022/08/04 08:01:04;;;;;;;11.60;4.00;;;;;;;24.59;61.09;101082.63;5047280;28;20028;-74
2022/08/04 08:03:30;;;;;;;7.65;4.03;;;;;;;24.63;59.72;101092.03;5047129;28;20558;-73
2022/08/04 08:05:55;;;;;;;8.02;4.22;;;;;;;24.68;59.90;101084.53;5050131;28;20099;-74
2022/08/04 08:08:20;;;;;;;7.70;4.15;;;;;;;24.72;60.31;101079.81;5048870;28;20025;-74
2022/08/04 08:10:49;;;;;;;10.57;4.25;;;;;;;24.74;59.15;101080.53;5050373;28;20472;-73
2022/08/04 08:13:15;;;;;;;10.02;4.50;;;;;;;24.79;60.11;101078.34;5046906;28;20020;-74
2022/08/04 08:15:44;;;;;;;12.48;4.60;;;;;;;24.84;60.57;101080.63;5045459;28;20017;-73
2022/08/04 08:18:10;;;;;;;8.38;4.65;;;;;;;24.89;60.34;101077.56;5043788;28;20715;-74
2022/08/04 08:20:35;;;;;;;14.65;5.55;;;;;;;24.94;62.51;101091.34;5047564;28;20485;-74
2022/08/04 08:23:02;;;;;;;12.63;5.45;;;;;;;24.99;61.76;101089.16;5048289;28;20112;-73
2022/08/04 08:25:30;;;;;;;8.70;4.80;;;;;;;24.99;59.85;101094.47;5048464;28;20353;-73
2022/08/04 08:27:55;;;;;;;9.15;4.97;;;;;;;25.02;60.81;101096.03;5045454;28;20111;-74
2022/08/04 08:30:21;;;;;;;11.55;4.57;;;;;;;25.03;60.07;101108.38;5046433;28;20095;-74
2022/08/04 08:32:46;;;;;;;9.02;4.82;;;;;;;25.03;58.05;101103.88;5046321;28;20075;-73
2022/08/04 08:35:12;;;;;;;10.77;5.40;;;;;;;25.06;59.24;101110.78;5047292;28;20112;-73
2022/08/04 08:37:47;;;;;;;11.23;4.90;;;;;;;25.08;60.37;101103.53;5046688;28;20052;-73
2022/08/04 08:40:47;;;;;;;8.35;4.75;;;;;;;25.18;59.40;101109.75;5045902;28;20028;-73
2022/08/04 08:43:32;;;;;;;10.63;5.53;;;;;;;25.27;58.76;101110.78;5045270;28;20045;-74
2022/08/04 08:46:31;;;;;;;10.70;5.35;;;;;;;25.32;60.23;101103.28;5049330;28;20139;-75
2022/08/04 08:49:26;;;;;;;10.75;5.57;;;;;;;25.36;60.22;101109.16;5050407;28;20041;-74
2022/08/04 08:52:34;;;;;;;14.00;6.43;;;;;;;25.41;59.71;101110.47;5048464;28;20179;-73
2022/08/04 08:55:30;;;;;;;9.98;5.45;;;;;;;25.38;59.07;101117.88;5047069;28;20028;-73
2022/08/04 08:58:01;;;;;;;8.20;5.05;;;;;;;25.30;58.70;101127.34;5047411;28;20038;-74
2022/08/04 09:00:39;;;;;;;8.45;5.00;;;;;;;25.26;58.69;101136.59;5047623;28;20309;-73
2022/08/04 09:03:22;;;;;;;12.32;4.82;;;;;;;25.27;58.41;101132.97;5048914;28;20052;-74
2022/08/04 09:05:53;;;;;;;9.15;4.55;;;;;;;25.30;57.64;101127.34;5050489;28;20028;-74
2022/08/04 09:08:40;;;;;;;7.72;4.15;;;;;;;25.40;58.66;101126.59;5051077;28;20169;-73
2022/08/04 09:11:17;;;;;;;10.05;4.28;;;;;;;25.51;57.29;101126.53;5049200;28;20033;-73
2022/08/04 09:13:53;;;;;;;10.95;4.13;;;;;;;25.60;57.89;101131.09;5043018;28;20021;-74
2022/08/04 09:16:28;;;;;;;9.30;4.38;;;;;;;25.67;57.15;101133.22;5044083;28;20100;-74
2022/08/04 09:19:02;;;;;;;7.68;4.10;;;;;;;25.68;57.08;101140.25;5046632;28;20028;-73
2022/08/04 09:22:08;;;;;;;10.25;3.95;;;;;;;25.67;57.44;101139.41;5048557;28;20028;-74
2022/08/04 09:24:49;;;;;;;7.40;3.28;;;;;;;25.73;57.15;101144.19;5041511;28;20040;-74
2022/08/04 09:27:19;;;;;;;9.60;2.90;;;;;;;25.84;55.86;101148.63;5049365;28;20033;-74
2022/08/04 09:29:55;;;;;;;5.80;2.15;;;;;;;25.93;56.08;101148.81;5054556;28;20096;-73
2022/08/04 09:32:35;;;;;;;4.72;2.35;;;;;;;25.97;54.91;101147.53;5054544;28;20029;-73
2022/08/04 09:35:24;;;;;;;6.85;2.50;;;;;;;26.00;54.48;101149.94;5049781;28;20021;-73
2022/08/04 09:38:11;;;;;;;6.30;2.00;;;;;;;26.05;54.55;101153.06;5048508;28;20397;-73
2022/08/04 09:40:42;;;;;;;4.03;1.90;;;;;;;26.10;55.80;101148.19;5048480;28;20036;-73
2022/08/04 09:43:30;;;;;;;6.15;2.30;;;;;;;26.12;54.93;101159.59;5042902;28;20178;-73
2022/08/04 09:46:19;;;;;;;4.57;2.03;;;;;;;26.11;54.83;101151.69;5045896;28;20036;-74
2022/08/04 09:48:54;;;;;;;5.72;1.80;;;;;;;26.12;54.53;101170.25;5044459;28;20079;-74
2022/08/04 09:51:57;;;;;;;6.45;2.00;;;;;;;26.13;54.40;101174.59;5046270;28;20048;-74
2022/08/04 09:54:55;;;;;;;6.05;1.92;;;;;;;26.08;53.84;101179.47;5048109;28;20029;-74
2022/08/04 09:57:35;;;;;;;6.38;1.90;;;;;;;25.97;53.31;101182.19;5048063;28;20052;-73
2022/08/04 10:00:05;;;;;;;7.28;1.88;;;;;;;25.86;53.79;101186.63;5048337;28;20078;-74
2022/08/04 10:02:35;;;;;;;6.05;1.98;;;;;;;25.76;52.51;101186.59;5044115;28;20025;-74
2022/08/04 10:05:03;;;;;;;6.47;2.03;;;;;;;25.68;52.89;101199.72;5048382;28;20060;-74
2022/08/04 10:07:45;;;;;;;7.07;1.70;;;;;;;25.64;53.32;101192.97;5046518;28;20066;-73
2022/08/04 10:10:33;;;;;;;7.55;1.45;;;;;;;25.64;53.42;101200.94;5046563;28;20029;-73
2022/08/04 10:13:14;;;;;;;7.93;1.60;;;;;;;25.62;52.26;101215.38;5049239;28;20028;-74
2022/08/04 10:15:47;;;;;;;4.10;1.20;;;;;;;25.53;51.79;101217.84;5050512;28;20029;-74
2022/08/04 10:18:44;;;;;;;6.88;1.58;;;;;;;25.45;52.91;101215.81;5042989;28;20094;-75
2022/08/04 10:21:30;;;;;;;6.68;1.50;;;;;;;25.39;52.64;101207.47;5046455;28;21479;-75
2022/08/04 10:24:29;;;;;;;9.40;1.65;;;;;;;25.31;53.43;101200.13;5048507;28;20025;-74
2022/08/04 10:27:00;;;;;;;5.63;1.65;;;;;;;25.19;53.18;101219.78;5045984;28;20042;-74
2022/08/04 10:29:37;;;;;;;4.15;1.30;;;;;;;25.09;54.12;101231.16;5047403;28;20404;-74
2022/08/04 10:32:13;;;;;;;7.22;1.50;;;;;;;25.02;54.74;101255.75;5044744;28;20035;-73
2022/08/04 10:35:08;;;;;;;13.63;1.60;;;;;;;24.98;54.87;101293.25;5045359;28;20017;-74
2022/08/04 10:37:53;;;;;;;7.38;1.25;;;;;;;24.96;54.97;101311.16;5039586;28;20047;-74
2022/08/04 10:40:44;;;;;;;4.35;1.30;;;;;;;24.92;55.51;101309.72;5048368;28;20047;-74
2022/08/04 10:43:29;;;;;;;7.97;1.60;;;;;;;24.77;57.51;101284.31;5040692;28;20053;-75
2022/08/04 10:46:00;;;;;;;6.32;1.90;;;;;;;24.58;60.15;101276.91;5043116;28;20027;-75
2022/08/04 10:48:50;;;;;;;8.65;2.08;;;;;;;24.34;60.66;101281.38;5043679;28;20037;-75
2022/08/04 10:51:37;;;;;;;8.90;2.03;;;;;;;24.08;63.56;101278.91;5038375;28;20148;-74
2022/08/04 10:54:07;;;;;;;5.75;1.90;;;;;;;23.91;65.18;101258.06;5040236;28;20044;-75
2022/08/04 10:56:40;;;;;;;6.03;1.87;;;;;;;23.81;65.33;101249.94;5042336;28;20060;-75
2022/08/04 10:59:20;;;;;;;5.10;1.98;;;;;;;23.78;65.67;101229.75;5041559;28;20025;-75
2022/08/04 11:01:48;;;;;;;4.68;1.90;;;;;;;23.75;68.21;101213.22;5041359;28;20079;-75
2022/08/04 11:04:22;;;;;;;5.13;2.10;;;;;;;23.74;69.98;101188.44;5044356;28;20059;-74
2022/08/04 11:06:48;;;;;;;8.25;2.33;;;;;;;23.77;69.07;101187.38;5043203;28;20382;-75
2022/08/04 11:09:16;;;;;;;4.88;2.25;;;;;;;23.84;71.20;101183.25;5045202;28;20559;-75
2022/08/04 11:11:52;;;;;;;5.80;2.30;;;;;;;23.97;68.83;101204.47;5044904;28;20032;-75
2022/08/04 11:14:34;;;;;;;6.28;2.45;;;;;;;24.10;68.81;101207.84;5044569;28;20407;-75
2022/08/04 11:17:05;;;;;;;6.85;2.50;;;;;;;24.22;70.92;101218.53;5040618;28;20047;-75
2022/08/04 11:19:37;;;;;;;5.95;2.20;;;;;;;24.22;68.56;101226.50;5040415;28;20037;-75
2022/08/04 11:22:09;;;;;;;4.53;2.40;;;;;;;24.17;67.57;101240.13;5043747;28;20107;-75
2022/08/04 11:24:37;;;;;;;5.25;2.30;;;;;;;24.08;69.67;101254.97;5040916;28;20036;-75
2022/08/04 11:27:10;;;;;;;6.45;2.70;;;;;;;24.01;69.17;101258.22;5043318;28;20037;-75
2022/08/04 11:30:02;;;;;;;8.07;2.60;;;;;;;23.92;68.35;101246.44;5042833;28;20125;-74
2022/08/04 11:32:44;;;;;;;5.70;2.65;;;;;;;23.86;68.08;101242.44;5043376;28;20040;-75
2022/08/04 11:35:18;;;;;;;5.00;2.60;;;;;;;23.84;69.23;101236.41;5042285;28;20033;-75
2022/08/04 11:38:00;;;;;;;9.82;2.88;;;;;;;23.91;69.68;101224.34;5041018;28;20393;-75
2022/08/04 11:40:40;;;;;;;6.10;2.50;;;;;;;24.01;69.78;101226.31;5040805;28;20575;-77
2022/08/04 11:43:11;;;;;;;12.13;3.22;;;;;;;24.14;70.29;101215.59;5038005;28;20110;-75
2022/08/04 11:46:12;;;;;;;8.48;3.03;;;;;;;24.30;67.93;101221.41;5040206;28;20048;-74
2022/08/04 11:48:49;;;;;;;4.63;2.83;;;;;;;24.38;68.00;101220.81;5003807;28;20047;-75
2022/08/04 11:51:17;;;;;;;4.70;2.45;;;;;;;24.49;66.87;101231.47;5034950;28;20028;-74
2022/08/04 11:53:43;;;;;;;6.60;2.72;;;;;;;24.57;65.54;101222.03;5038547;28;20442;-74
2022/08/04 11:56:12;;;;;;;4.40;2.70;;;;;;;24.62;66.59;101212.69;5039905;28;20025;-75
2022/08/04 11:58:37;;;;;;;5.63;2.58;;;;;;;24.72;65.28;101217.34;5040709;28;20041;-75
2022/08/04 12:01:27;;;;;;;6.05;3.00;;;;;;;24.82;63.30;101218.28;5041043;28;20032;-75
2022/08/04 12:04:02;;;;;;;5.65;2.00;;;;;;;24.88;59.36;101216.94;5040538;28;20115;-76
2022/08/04 12:07:02;;;;;;;5.32;2.00;;;;;;;24.90;60.88;101226.50;5039306;28;20067;-76
2022/08/04 12:09:54;;;;;;;4.95;2.35;;;;;;;24.92;61.67;101218.38;5036895;28;20049;-75